Monday, July 23, 2018, 11:34 AM EDT
Back to Local

KFMH, Otis Air National Guard Base

Location: Mashpee, MA, United States Lat: 41.65
Local Time: 11:34 AM EDT (15:34 GMT) Lon: -70.517
Time Zone: US/Eastern Elev: 131 ft

Show me the last for .
Show Decoded

2018-07-23 11:15 METAR KFMH 231515Z AUTO 18017KT 10SM OVC045 26/22 A3027 RMK AO2 =
2018-07-23 10:55 METAR KFMH 231455Z AUTO 18013G22KT 10SM SCT046 SCT060 BKN070 26/22 A3027 RMK AO2
                 =
2018-07-23 10:35 METAR KFMH 231435Z AUTO 17019KT 9SM FEW013 FEW060 FEW070 26/22 A3027 RMK AO2 =
2018-07-23 10:15 METAR KFMH 231415Z AUTO 17016G22KT 10SM FEW070 26/22 A3027 RMK AO2 =
2018-07-23 09:35 METAR KFMH 231335Z AUTO 17015G26KT 9SM FEW014 FEW031 SCT070 26/22 A3025 RMK AO2
                 =
2018-07-23 09:15 METAR KFMH 231315Z AUTO 18017G25KT 9SM FEW013 SCT031 SCT070 25/22 A3025 RMK AO2
                 =
2018-07-23 08:55 METAR KFMH 231255Z AUTO 17016KT 9SM SCT012 SCT070 25/22 A3025 RMK AO2 =
2018-07-23 08:35 METAR KFMH 231235Z AUTO 16015G25KT 9SM SCT012 BKN065 BKN070 24/22 A3024 RMK AO2
                 =
2018-07-23 08:15 METAR KFMH 231215Z AUTO 16015G20KT 9SM SCT010 BKN055 OVC065 24/22 A3024 RMK AO2
                 =
2018-07-23 07:55 METAR KFMH 231155Z AUTO 17018KT 9SM FEW010 SCT047 OVC055 24/22 A3024 RMK AO2 =
2018-07-23 07:35 METAR KFMH 231135Z AUTO 17015G26KT 9SM SCT010 BKN047 BKN055 24/22 A3023 RMK AO2
                 =
2018-07-23 07:15 METAR KFMH 231115Z AUTO 16015KT 9SM BKN009 BKN013 OVC055 24/22 A3023 RMK AO2 =
2018-07-23 06:55 METAR KFMH 231055Z AUTO 16014G19KT 8SM OVC008 23/22 A3022 RMK AO2 =
2018-07-23 06:35 METAR KFMH 231035Z AUTO 16013G23KT 8SM OVC007 23/22 A3022 RMK AO2 =
2018-07-23 06:15 METAR KFMH 231015Z AUTO 16015G21KT 7SM OVC008 23/22 A3022 RMK AO2 =
2018-07-23 05:55 METAR KFMH 230955Z AUTO 16014KT 7SM OVC008 23/22 A3022 RMK AO2 =
2018-07-23 05:35 METAR KFMH 230935Z AUTO 16011G17KT 8SM OVC009 23/22 A3021 RMK AO2 =
2018-07-23 05:15 METAR KFMH 230915Z AUTO 16014G22KT 9SM OVC008 23/22 A3020 RMK AO2 =
2018-07-23 04:55 METAR KFMH 230855Z AUTO 15015KT 9SM OVC008 23/22 A3019 RMK AO2 =
2018-07-23 04:35 METAR KFMH 230835Z AUTO 15013G25KT 9SM OVC007 23/22 A3019 RMK AO2 =
2018-07-23 04:15 METAR KFMH 230815Z AUTO 16011G16KT 9SM OVC007 23/22 A3019 RMK AO2 =
2018-07-23 03:55 METAR KFMH 230755Z AUTO 16012G18KT 9SM OVC008 23/22 A3020 RMK AO2 =
2018-07-23 03:35 METAR KFMH 230735Z AUTO 16013G18KT 9SM OVC009 23/22 A3019 RMK AO2 =
2018-07-23 03:15 METAR KFMH 230715Z AUTO 16015KT 9SM BKN009 BKN016 OVC075 23/22 A3019 RMK AO2 =
2018-07-23 02:55 METAR KFMH 230655Z AUTO 15013G21KT 9SM OVC008 23/22 A3019 RMK AO2 =
2018-07-23 02:35 METAR KFMH 230635Z AUTO 16014G22KT 9SM OVC008 23/22 A3019 RMK AO2 =
2018-07-23 02:15 METAR KFMH 230615Z AUTO 15013G19KT 9SM OVC008 23/22 A3019 RMK AO2 =
2018-07-23 01:55 METAR KFMH 230555Z AUTO 15012G26KT 9SM BKN008 OVC032 23/22 A3019 RMK AO2 =
2018-07-23 01:35 METAR KFMH 230535Z AUTO 16013G20KT 9SM BKN009 OVC033 23/22 A3019 RMK AO2 =
2018-07-23 01:15 METAR KFMH 230515Z AUTO 15015G20KT 9SM BKN009 OVC033 23/22 A3019 RMK AO2 =
2018-07-23 00:55 METAR KFMH 230455Z AUTO 16016G22KT 8SM OVC008 23/22 A3019 RMK AO2 =
2018-07-23 00:35 METAR KFMH 230435Z AUTO 16015G20KT 8SM BKN009 BKN021 OVC033 23/22 A3020 RMK AO2
                 =
2018-07-23 00:15 METAR KFMH 230415Z AUTO 16016G22KT 8SM BKN009 BKN021 OVC039 23/22 A3020 RMK AO2
                 =
2018-07-22 23:55 METAR KFMH 230355Z AUTO 16015G22KT 8SM BKN008 OVC016 23/23 A3020 RMK AO2 =
2018-07-22 23:35 METAR KFMH 230335Z AUTO 15016G21KT 7SM BKN008 OVC016 23/23 A3020 RMK AO2 =
2018-07-22 23:15 METAR KFMH 230315Z AUTO 15014G20KT 7SM OVC008 23/23 A3019 RMK AO2 =
2018-07-22 22:55 METAR KFMH 230255Z AUTO 16013G18KT 7SM BKN007 OVC011 23/22 A3020 RMK AO2 =
2018-07-22 22:35 METAR KFMH 230235Z AUTO 16014KT 7SM OVC007 23/22 A3019 RMK AO2 =
2018-07-22 22:15 METAR KFMH 230215Z AUTO 15015G22KT 7SM OVC007 23/23 A3019 RMK AO2 =
2018-07-22 21:55 METAR KFMH 230155Z AUTO 15014G21KT 7SM OVC007 23/23 A3019 RMK AO2 =
2018-07-22 21:35 METAR KFMH 230135Z AUTO 15012G19KT 7SM OVC008 23/23 A3019 RMK AO2 =
2018-07-22 21:15 METAR KFMH 230115Z AUTO 16013G20KT 6SM BR BKN007 OVC010 23/23 A3019 RMK AO2 =
2018-07-22 20:55 METAR KFMH 230055Z AUTO 15013G19KT 7SM 23/23 A3017 RMK AO2 =
2018-07-22 20:35 METAR KFMH 230035Z AUTO 15013KT 6SM BR BKN007 OVC010 23/23 A3016 RMK AO2 =
2018-07-22 20:15 METAR KFMH 230015Z AUTO 15013G18KT 6SM BR OVC006 23/23 A3016 RMK AO2 =
2018-07-22 19:55 METAR KFMH 222355Z AUTO 14011KT 5SM BR BKN006 OVC009 23/23 A3015 RMK AO2 =
2018-07-22 19:35 METAR KFMH 222335Z AUTO 14012KT 1 1/2SM -RA BKN006 BKN024 OVC032 23/23 A3015 RMK
                 AO2 VIS 3/4V5 =
2018-07-22 19:15 METAR KFMH 222315Z AUTO 14013KT 2SM BR SCT007 SCT037 BKN048 24/22 A3015 RMK AO2
                 =
2018-07-22 18:55 METAR KFMH 222255Z AUTO 14012KT 10SM SCT010 BKN038 OVC050 24/22 A3015 RMK AO2 =
2018-07-22 18:35 METAR KFMH 222235Z AUTO 15011KT 10SM FEW010 BKN055 24/22 A3015 RMK AO2 =
2018-07-22 18:15 METAR KFMH 222215Z AUTO 15014KT 10SM FEW008 FEW013 FEW060 24/22 A3014 RMK AO2 =
2018-07-22 17:55 METAR KFMH 222155Z AUTO 15011G20KT 10SM SCT009 BKN039 BKN075 24/22 A3013 RMK AO2
                 =
2018-07-22 17:35 METAR KFMH 222135Z AUTO 16012G19KT 10SM FEW010 BKN037 BKN043 24/22 A3013 RMK AO2
                 =
2018-07-22 17:15 METAR KFMH 222115Z AUTO 16013KT 10SM SCT012 BKN036 OVC043 25/22 A3013 RMK AO2 =
2018-07-22 16:55 METAR KFMH 222055Z AUTO 16010G19KT 10SM FEW013 BKN038 OVC043 25/22 A3013 RMK AO2
                 =
2018-07-22 16:35 METAR KFMH 222035Z AUTO 15015G22KT 10SM FEW014 BKN041 26/22 A3013 RMK AO2 =
2018-07-22 16:15 METAR KFMH 222015Z AUTO 15015KT 10SM CLR 26/21 A3013 RMK AO2 =
2018-07-22 15:55 METAR KFMH 221955Z AUTO 16016KT 10SM FEW013 26/21 A3012 RMK AO2 =
2018-07-22 15:35 METAR KFMH 221935Z AUTO 15012G19KT 10SM BKN012 25/21 A3012 RMK AO2 =
2018-07-22 15:15 METAR KFMH 221915Z AUTO 15013KT 10SM BKN013 OVC018 25/21 A3012 RMK AO2 =
2018-07-22 14:55 METAR KFMH 221855Z AUTO 16017KT 10SM BKN015 26/21 A3012 RMK AO2 =
2018-07-22 14:35 METAR KFMH 221835Z AUTO 17015G21KT 10SM BKN015 26/21 A3012 RMK AO2 =
2018-07-22 14:15 METAR KFMH 221815Z AUTO 16012KT 10SM FEW015 26/22 A3011 RMK AO2 =
2018-07-22 13:55 METAR KFMH 221755Z AUTO 16011G17KT 10SM SCT025 BKN034 25/21 A3011 RMK AO2 =
2018-07-22 13:35 METAR KFMH 221735Z AUTO 17009KT 10SM FEW013 SCT026 OVC035 25/21 A3011 RMK AO2 =
2018-07-22 13:15 METAR KFMH 221715Z AUTO 19010G15KT 10SM FEW013 FEW021 BKN037 24/22 A3011 RMK AO2
                 =
2018-07-22 12:55 METAR KFMH 221655Z AUTO 17012KT 10SM BKN037 24/21 A3011 RMK AO2 =
2018-07-22 12:35 METAR KFMH 221635Z AUTO 17012KT 10SM FEW013 24/21 A3010 RMK AO2 =
2018-07-22 12:15 METAR KFMH 221615Z AUTO 17011KT 10SM SCT012 23/21 A3010 RMK AO2 =
2018-07-22 11:55 METAR KFMH 221555Z AUTO 17012KT 10SM SCT009 SCT013 24/21 A3010 RMK AO2 =
2018-07-22 11:35 METAR KFMH 221535Z AUTO 15013KT 9SM SCT009 SCT012 SCT017 23/21 A3010 RMK AO2 =

Support USWX by starting your Amazon purchase here.